Williston, Vermont
Current Conditions -  °F | °C
As of 1:54 PM on Tuesday 27 Jan 2015 (Local Time) from KBTV Reporting Station
Moderate Snow Moderate Snow  
Wind Chill: -13°   Ceiling: 800
Heat Index:   Visibility: 0.5mi
Dew Point:   Wind: 21mph
Humidity: 77%   Direction: 360°N
Pressure: 29.92"   Gusts: 28mph
Location:  44.44°N, 73.07°W
Report Text: KBTV 271854Z 36018G24KT 1/2SM R15/2600V3000FT SN VV008 M14/M17 A2992 RMK AO2 SLP140 P0001 T11391172
Loading
Personal Weather Stations






























Interactive Weather Map New forecast layout! Learn more

10-Day Weather Forecast

Advertisements
Track Severe Weather on mobile